Terminal Aerodrome Forecast
Issued by NWS Jackson, MS

Home | Current Version | Previous Version | Text Only | Print | Product List | Glossary On
Versions: 1 2 3 4 5 6 7 8 9 10 11 12 13 14 15
000
FTUS44 KJAN 292325
TAFJAN
TAF
KJAN 292325Z 3000/3024 16005KT P6SM BKN110
     FM300100 18003KT P6SM SCT100 BKN250
     FM300900 16003KT P6SM SHRA OVC090
     FM301300 18003KT P6SM -SHRA BKN050 OVC090=

USA.gov is the U.S. government's official web portal to all federal, state and local government web resources and services.